createdAt,value
2023-02-12T00:00:07.036Z,8.77
2023-02-12T00:02:41.975Z,8.88
2023-02-12T00:05:08.744Z,8.78
2023-02-12T00:07:35.332Z,8.87
2023-02-12T00:10:02.048Z,8.74
2023-02-12T00:12:28.687Z,8.95
2023-02-12T00:15:08.330Z,8.87
2023-02-12T00:17:35.241Z,8.85
2023-02-12T00:20:01.949Z,8.79
2023-02-12T00:22:29.573Z,8.68
2023-02-12T00:24:56.881Z,8.72
2023-02-12T00:27:24.115Z,8.76
2023-02-12T00:29:50.879Z,8.75
2023-02-12T00:32:20.658Z,8.64
2023-02-12T00:34:47.607Z,8.65
2023-02-12T00:37:15.972Z,8.51
2023-02-12T00:39:42.857Z,8.65
2023-02-12T00:42:11.008Z,8.61
2023-02-12T00:44:37.577Z,8.70
2023-02-12T00:47:05.458Z,8.66
2023-02-12T00:49:35.462Z,8.78
2023-02-12T00:52:03.567Z,8.81
2023-02-12T00:54:31.764Z,8.75
2023-02-12T00:56:59.024Z,8.75
2023-02-12T00:59:29.798Z,8.71
2023-02-12T01:01:56.929Z,8.83
2023-02-12T01:04:24.425Z,8.71
2023-02-12T01:06:51.200Z,8.71
2023-02-12T01:09:19.033Z,8.59
2023-02-12T01:11:47.876Z,8.48
2023-02-12T01:14:14.474Z,8.50
2023-02-12T01:16:41.297Z,8.64
2023-02-12T01:19:07.989Z,8.83
2023-02-12T01:21:35.271Z,8.66
2023-02-12T01:24:02.695Z,8.61
2023-02-12T01:26:31.105Z,8.53
2023-02-12T01:29:01.477Z,8.54
2023-02-12T01:31:31.643Z,8.58
2023-02-12T01:33:59.831Z,8.63
2023-02-12T01:36:28.997Z,8.67
2023-02-12T01:38:57.850Z,8.55
2023-02-12T01:41:32.489Z,8.75
2023-02-12T01:44:13.735Z,8.73
2023-02-12T01:46:40.654Z,8.57
2023-02-12T01:49:14.339Z,8.76
2023-02-12T01:51:43.114Z,8.74
2023-02-12T01:54:13.375Z,8.79
2023-02-12T01:56:42.108Z,8.81
2023-02-12T01:59:09.067Z,8.76
2023-02-12T02:01:35.932Z,8.55
2023-02-12T02:04:07.249Z,8.46
2023-02-12T02:06:39.711Z,8.41
2023-02-12T02:09:06.531Z,8.45
2023-02-12T02:11:51.651Z,8.52
2023-02-12T02:14:34.057Z,8.64
2023-02-12T02:17:24.466Z,8.62
2023-02-12T02:20:00.004Z,8.64
2023-02-12T02:22:36.099Z,8.66
2023-02-12T02:25:23.950Z,8.68
2023-02-12T02:27:50.519Z,8.69
2023-02-12T02:30:26.129Z,8.66
2023-02-12T02:33:07.833Z,8.72
2023-02-12T02:35:43.412Z,8.60
2023-02-12T02:38:45.491Z,8.72
2023-02-12T02:41:28.572Z,8.74
2023-02-12T02:43:56.063Z,8.75
2023-02-12T02:46:25.488Z,8.71
2023-02-12T02:49:02.061Z,8.66
2023-02-12T02:51:41.176Z,8.69
2023-02-12T02:54:16.443Z,8.70
2023-02-12T02:56:47.751Z,8.70
2023-02-12T02:59:24.125Z,8.72
2023-02-12T03:02:01.673Z,8.71
2023-02-12T03:04:45.870Z,8.76
2023-02-12T03:07:41.749Z,8.74
2023-02-12T03:10:20.549Z,8.72
2023-02-12T03:13:07.403Z,8.62
2023-02-12T03:15:52.484Z,8.56
2023-02-12T03:18:30.654Z,8.54
2023-02-12T03:21:03.236Z,8.60
2023-02-12T03:23:55.436Z,8.53
2023-02-12T03:26:27.387Z,8.49
2023-02-12T03:28:53.973Z,8.64
2023-02-12T03:31:38.962Z,8.68
2023-02-12T03:34:26.880Z,8.67
2023-02-12T03:36:57.079Z,8.63
2023-02-12T03:39:45.413Z,8.70
2023-02-12T03:42:38.268Z,8.75
2023-02-12T03:45:19.978Z,8.60
2023-02-12T03:47:51.539Z,8.31
2023-02-12T03:50:44.234Z,8.19
2023-02-12T03:53:11.043Z,8.24
2023-02-12T03:55:42.351Z,8.37
2023-02-12T03:58:12.562Z,8.44
2023-02-12T04:00:39.691Z,8.37
2023-02-12T04:03:07.649Z,8.38
2023-02-12T04:05:34.279Z,8.13
2023-02-12T04:08:04.252Z,8.14
2023-02-12T04:11:01.975Z,8.18
2023-02-12T04:13:49.964Z,8.28
2023-02-12T04:16:40.532Z,8.18
2023-02-12T04:19:12.688Z,8.13
2023-02-12T04:22:05.420Z,8.04
2023-02-12T04:24:44.887Z,8.18
2023-02-12T04:27:39.767Z,8.12
2023-02-12T04:30:40.615Z,8.17
2023-02-12T04:33:11.770Z,8.02
2023-02-12T04:35:51.438Z,8.15
2023-02-12T04:38:23.885Z,8.17
2023-02-12T04:40:51.764Z,8.02
2023-02-12T04:43:36.507Z,8.14
2023-02-12T04:46:05.646Z,7.99
2023-02-12T04:48:32.327Z,8.21
2023-02-12T04:50:58.880Z,8.22
2023-02-12T04:53:25.474Z,8.40
2023-02-12T04:55:52.229Z,8.40
2023-02-12T04:58:19.316Z,8.18
2023-02-12T05:00:45.853Z,8.11
2023-02-12T05:03:12.479Z,8.09
2023-02-12T05:05:39.131Z,8.12
2023-02-12T05:08:05.798Z,8.16
2023-02-12T05:10:32.369Z,8.18
2023-02-12T05:12:59.003Z,8.26
2023-02-12T05:15:25.584Z,8.35
2023-02-12T05:17:52.281Z,8.39
2023-02-12T05:20:19.033Z,8.28
2023-02-12T05:22:45.661Z,8.41
2023-02-12T05:25:12.316Z,8.44
2023-02-12T05:27:38.987Z,8.41
2023-02-12T05:30:06.243Z,8.51
2023-02-12T05:32:32.889Z,8.49
2023-02-12T05:34:59.400Z,8.38
2023-02-12T05:37:26.299Z,8.48
2023-02-12T05:39:53.852Z,8.48
2023-02-12T05:42:20.517Z,8.38
2023-02-12T05:44:47.077Z,8.39
2023-02-12T05:47:13.840Z,8.39
2023-02-12T05:49:40.670Z,8.46
2023-02-12T05:52:07.371Z,8.48
2023-02-12T05:54:34.027Z,8.50
2023-02-12T05:57:00.644Z,8.41
2023-02-12T05:59:27.245Z,8.42
2023-02-12T06:01:53.933Z,8.40
2023-02-12T06:04:26.265Z,8.21
2023-02-12T06:06:54.035Z,8.34
2023-02-12T06:09:20.627Z,8.35
2023-02-12T06:11:47.317Z,8.27
2023-02-12T06:14:19.334Z,8.23
2023-02-12T06:16:48.335Z,8.27
2023-02-12T06:19:15.735Z,8.24
2023-02-12T06:21:42.583Z,8.30
2023-02-12T06:24:13.675Z,8.24
2023-02-12T06:26:40.634Z,8.25
2023-02-12T06:29:07.332Z,8.30
2023-02-12T06:31:36.706Z,8.31
2023-02-12T06:34:06.392Z,8.36
2023-02-12T06:36:33.180Z,8.33
2023-02-12T06:39:02.742Z,8.24
2023-02-12T06:41:29.652Z,8.23
2023-02-12T06:43:56.293Z,8.27
2023-02-12T06:46:23.448Z,8.25
2023-02-12T06:48:54.516Z,8.22
2023-02-12T06:51:23.960Z,8.20
2023-02-12T06:53:52.229Z,8.31
2023-02-12T06:56:20.151Z,8.35
2023-02-12T06:58:48.397Z,8.22
2023-02-12T07:01:17.776Z,8.12
2023-02-12T07:03:48.599Z,8.16
2023-02-12T07:06:15.476Z,8.19
2023-02-12T07:08:42.283Z,8.08
2023-02-12T07:11:09.101Z,8.17
2023-02-12T07:13:35.966Z,8.21
2023-02-12T07:16:13.938Z,8.30
2023-02-12T07:18:40.767Z,8.28
2023-02-12T07:21:08.548Z,8.17
2023-02-12T07:23:35.972Z,8.28
2023-02-12T07:26:09.000Z,8.31
2023-02-12T07:28:35.812Z,8.28
2023-02-12T07:31:14.074Z,8.15
2023-02-12T07:33:41.954Z,8.28
2023-02-12T07:36:11.499Z,8.21
2023-02-12T07:38:39.862Z,8.19
2023-02-12T07:41:14.511Z,8.21
2023-02-12T07:43:43.462Z,8.23
2023-02-12T07:46:29.505Z,8.34
2023-02-12T07:48:58.150Z,8.37
2023-02-12T07:51:25.431Z,8.44
2023-02-12T07:53:55.168Z,8.39
2023-02-12T07:56:24.574Z,8.51
2023-02-12T07:58:53.369Z,8.44
2023-02-12T08:01:21.518Z,8.43
2023-02-12T08:03:49.823Z,8.47
2023-02-12T08:06:28.562Z,8.58
2023-02-12T08:08:58.070Z,8.40
2023-02-12T08:11:25.883Z,8.48
2023-02-12T08:13:53.146Z,8.58
2023-02-12T08:16:22.234Z,8.48
2023-02-12T08:18:49.435Z,8.61
2023-02-12T08:21:18.361Z,8.63
2023-02-12T08:23:45.743Z,8.59
2023-02-12T08:26:13.937Z,8.51
2023-02-12T08:28:43.367Z,8.55
2023-02-12T08:31:13.657Z,8.65
2023-02-12T08:33:40.432Z,8.63
2023-02-12T08:36:12.663Z,8.58
2023-02-12T08:38:39.953Z,8.53
2023-02-12T08:41:09.753Z,8.67
2023-02-12T08:43:37.235Z,8.81
2023-02-12T08:46:03.859Z,8.93
2023-02-12T08:48:30.660Z,8.93
2023-02-12T08:51:02.857Z,8.75
2023-02-12T08:53:29.454Z,8.95
2023-02-12T08:55:56.318Z,8.96
2023-02-12T08:58:23.017Z,8.93
2023-02-12T09:00:49.622Z,9.12
2023-02-12T09:03:16.167Z,9.15
2023-02-12T09:05:42.806Z,9.23
2023-02-12T09:08:09.667Z,9.28
2023-02-12T09:10:41.031Z,9.30
2023-02-12T09:13:09.053Z,9.09
2023-02-12T09:15:45.125Z,9.25
2023-02-12T09:18:13.462Z,9.23
2023-02-12T09:20:43.033Z,9.47
2023-02-12T09:23:10.862Z,9.33
2023-02-12T09:25:43.025Z,9.42
2023-02-12T09:28:11.268Z,9.44
2023-02-12T09:30:38.589Z,9.57
2023-02-12T09:33:06.668Z,9.67
2023-02-12T09:35:39.554Z,9.43
2023-02-12T09:38:07.199Z,9.55
2023-02-12T09:40:46.036Z,9.39
2023-02-12T09:43:23.724Z,9.56
2023-02-12T09:46:00.764Z,9.58
2023-02-12T09:48:54.824Z,8.97
2023-02-12T09:51:22.259Z,9.30
2023-02-12T09:53:56.355Z,9.38
2023-02-12T09:56:26.966Z,9.48
2023-02-12T09:59:03.077Z,9.45
2023-02-12T10:01:29.991Z,9.15
2023-02-12T10:03:56.936Z,9.44
2023-02-12T10:06:23.501Z,9.54
2023-02-12T10:09:11.422Z,9.38
2023-02-12T10:11:53.265Z,9.58
2023-02-12T10:14:27.654Z,9.57
2023-02-12T10:17:13.139Z,9.55
2023-02-12T10:20:04.618Z,9.44
2023-02-12T10:22:31.280Z,9.41
2023-02-12T10:25:12.220Z,9.41
2023-02-12T10:27:54.843Z,9.19
2023-02-12T10:30:26.670Z,9.60
2023-02-12T10:33:00.626Z,9.54
2023-02-12T10:35:27.696Z,9.26
2023-02-12T10:38:27.114Z,9.07
2023-02-12T10:40:57.567Z,9.08
2023-02-12T10:43:24.814Z,9.25
2023-02-12T10:45:52.379Z,9.46
2023-02-12T10:48:24.988Z,9.44
2023-02-12T10:51:06.044Z,9.45
2023-02-12T10:53:34.028Z,9.24
2023-02-12T10:56:12.918Z,9.37
2023-02-12T10:58:43.007Z,9.61
2023-02-12T11:01:19.180Z,9.36
2023-02-12T11:03:45.911Z,9.19
2023-02-12T11:06:16.622Z,8.99
2023-02-12T11:08:44.062Z,9.28
2023-02-12T11:11:20.023Z,9.43
2023-02-12T11:13:54.569Z,9.48
2023-02-12T11:16:33.586Z,9.31
2023-02-12T11:19:04.676Z,8.96
2023-02-12T11:21:32.417Z,9.16
2023-02-12T11:24:21.591Z,9.59
2023-02-12T11:26:48.359Z,9.77
2023-02-12T11:29:24.563Z,9.30
2023-02-12T11:32:04.941Z,9.48
2023-02-12T11:34:31.901Z,9.79
2023-02-12T11:36:58.988Z,9.91
2023-02-12T11:39:32.468Z,9.76
2023-02-12T11:42:14.752Z,9.80
2023-02-12T11:44:48.074Z,9.97
2023-02-12T11:47:30.198Z,9.85
2023-02-12T11:50:05.755Z,10.08
2023-02-12T11:52:35.441Z,9.84
2023-02-12T11:55:18.324Z,10.01
2023-02-12T11:57:47.609Z,9.48
2023-02-12T12:00:17.693Z,10.02
2023-02-12T12:03:06.827Z,9.95
2023-02-12T12:05:43.639Z,10.15
2023-02-12T12:08:33.448Z,10.51
2023-02-12T12:11:10.884Z,10.53
2023-02-12T12:13:44.588Z,10.17
2023-02-12T12:16:49.194Z,10.60
2023-02-12T12:19:43.061Z,10.78
2023-02-12T12:22:23.190Z,10.87
2023-02-12T12:24:49.702Z,11.02
2023-02-12T12:27:45.097Z,10.70
2023-02-12T12:30:27.057Z,10.60
2023-02-12T12:32:56.280Z,10.86
2023-02-12T12:35:37.477Z,11.09
2023-02-12T12:38:24.090Z,10.89
2023-02-12T12:41:12.562Z,10.52
2023-02-12T12:43:50.143Z,11.08
2023-02-12T12:46:29.180Z,10.92
2023-02-12T12:49:18.191Z,11.33
2023-02-12T12:52:06.561Z,11.18
2023-02-12T12:54:51.921Z,11.35
2023-02-12T12:57:39.593Z,11.77
2023-02-12T13:00:25.264Z,11.56
2023-02-12T13:02:57.981Z,11.62
2023-02-12T13:05:59.739Z,11.58
2023-02-12T13:08:52.071Z,11.91
2023-02-12T13:11:40.008Z,11.54
2023-02-12T13:14:30.917Z,11.25
2023-02-12T13:17:23.404Z,11.09
2023-02-12T13:20:23.900Z,11.11
2023-02-12T13:22:50.437Z,11.13
2023-02-12T13:25:27.626Z,11.31
2023-02-12T13:27:57.282Z,11.37
2023-02-12T13:30:25.382Z,11.37
2023-02-12T13:33:05.913Z,11.28
2023-02-12T13:35:35.577Z,11.10
2023-02-12T13:38:03.625Z,11.20
2023-02-12T13:40:31.085Z,11.12
2023-02-12T13:43:13.628Z,11.14
2023-02-12T13:45:52.393Z,11.31
2023-02-12T13:48:48.304Z,11.24
2023-02-12T13:51:15.017Z,10.61
2023-02-12T13:53:47.832Z,11.10
2023-02-12T13:56:46.017Z,10.41
2023-02-12T13:59:39.774Z,11.02
2023-02-12T14:02:12.459Z,11.37
2023-02-12T14:04:46.060Z,11.45
2023-02-12T14:07:15.417Z,11.35
2023-02-12T14:09:46.136Z,11.30
2023-02-12T14:12:24.934Z,11.44
2023-02-12T14:15:08.675Z,11.19
2023-02-12T14:17:35.203Z,10.95
2023-02-12T14:20:20.858Z,11.28
2023-02-12T14:22:47.413Z,11.08
2023-02-12T14:25:13.943Z,10.69
2023-02-12T14:27:54.991Z,10.69
2023-02-12T14:30:35.410Z,10.82
2023-02-12T14:33:08.238Z,10.92
2023-02-12T14:35:37.604Z,11.02
2023-02-12T14:38:32.202Z,11.06
2023-02-12T14:41:34.086Z,11.25
2023-02-12T14:44:26.813Z,11.27
2023-02-12T14:46:55.788Z,11.10
2023-02-12T14:49:34.635Z,10.99
2023-02-12T14:52:19.888Z,11.08
2023-02-12T14:54:50.622Z,11.02
2023-02-12T14:57:26.189Z,10.89
2023-02-12T14:59:57.039Z,11.13
2023-02-12T15:02:30.072Z,11.15
2023-02-12T15:05:02.524Z,11.36
2023-02-12T15:07:45.982Z,11.38
2023-02-12T15:10:20.268Z,11.36
2023-02-12T15:12:55.014Z,11.23
2023-02-12T15:15:33.718Z,11.20
2023-02-12T15:18:07.558Z,11.16
2023-02-12T15:20:41.211Z,10.90
2023-02-12T15:23:34.824Z,11.14
2023-02-12T15:26:02.911Z,11.07
2023-02-12T15:28:36.431Z,11.21
2023-02-12T15:31:10.600Z,11.25
2023-02-12T15:33:45.695Z,11.20
2023-02-12T15:36:17.382Z,11.26
2023-02-12T15:38:45.746Z,11.12
2023-02-12T15:41:27.023Z,11.01
2023-02-12T15:43:54.095Z,10.87
2023-02-12T15:46:21.124Z,11.08
2023-02-12T15:48:47.673Z,10.99
2023-02-12T15:51:25.898Z,10.92
2023-02-12T15:53:52.939Z,10.80
2023-02-12T15:56:22.995Z,10.56
2023-02-12T15:58:52.740Z,10.81
2023-02-12T16:01:24.780Z,10.49
2023-02-12T16:04:00.315Z,10.79
2023-02-12T16:06:29.223Z,10.90
2023-02-12T16:09:03.506Z,10.82
2023-02-12T16:11:31.541Z,10.86
2023-02-12T16:14:05.734Z,10.78
2023-02-12T16:16:45.506Z,10.83
2023-02-12T16:19:24.250Z,10.85
2023-02-12T16:22:06.316Z,10.80
2023-02-12T16:24:35.798Z,10.73
2023-02-12T16:27:09.427Z,10.69
2023-02-12T16:29:43.632Z,10.79
2023-02-12T16:32:27.204Z,10.75
2023-02-12T16:35:04.782Z,10.89
2023-02-12T16:37:37.349Z,10.95
2023-02-12T16:40:07.382Z,10.83
2023-02-12T16:42:34.092Z,10.88
2023-02-12T16:45:00.851Z,10.87
2023-02-12T16:47:30.351Z,10.83
2023-02-12T16:49:59.977Z,10.80
2023-02-12T16:52:40.639Z,10.70
2023-02-12T16:55:13.919Z,10.70
2023-02-12T16:57:40.791Z,10.69
2023-02-12T17:00:20.222Z,10.72
2023-02-12T17:02:56.925Z,10.62
2023-02-12T17:05:24.021Z,10.60
2023-02-12T17:07:50.769Z,10.65
2023-02-12T17:10:18.522Z,10.61
2023-02-12T17:12:51.169Z,10.66
2023-02-12T17:15:24.696Z,10.68
2023-02-12T17:17:52.358Z,10.68
2023-02-12T17:20:19.028Z,10.59
2023-02-12T17:22:52.369Z,10.67
2023-02-12T17:25:19.036Z,10.50
2023-02-12T17:27:45.745Z,10.45
2023-02-12T17:30:18.186Z,10.42
2023-02-12T17:32:44.940Z,10.39
2023-02-12T17:35:14.224Z,10.41
2023-02-12T17:37:40.837Z,10.49
2023-02-12T17:40:08.913Z,10.46
2023-02-12T17:42:35.758Z,10.48
2023-02-12T17:45:02.481Z,10.40
2023-02-12T17:47:29.825Z,10.48
2023-02-12T17:49:56.466Z,10.44
2023-02-12T17:52:23.064Z,10.29
2023-02-12T17:54:49.661Z,10.30
2023-02-12T17:57:16.870Z,10.30
2023-02-12T17:59:43.493Z,10.35
2023-02-12T18:02:11.416Z,10.48
2023-02-12T18:04:38.094Z,10.35
2023-02-12T18:07:06.246Z,10.26
2023-02-12T18:09:33.081Z,10.22
2023-02-12T18:11:59.900Z,10.15
2023-02-12T18:14:26.516Z,10.19
2023-02-12T18:16:53.152Z,10.31
2023-02-12T18:19:19.886Z,10.28
2023-02-12T18:21:46.570Z,10.20
2023-02-12T18:24:13.309Z,10.17
2023-02-12T18:26:39.967Z,10.21
2023-02-12T18:29:06.609Z,10.06
2023-02-12T18:31:33.658Z,10.02
2023-02-12T18:34:00.447Z,9.96
2023-02-12T18:36:27.248Z,10.14
2023-02-12T18:38:53.986Z,10.16
2023-02-12T18:41:24.182Z,10.16
2023-02-12T18:43:51.120Z,10.14
2023-02-12T18:46:19.401Z,10.13
2023-02-12T18:48:46.649Z,10.13
2023-02-12T18:51:16.948Z,10.12
2023-02-12T18:53:44.306Z,10.10
2023-02-12T18:56:11.941Z,10.10
2023-02-12T18:58:38.897Z,10.09
2023-02-12T19:01:16.678Z,10.13
2023-02-12T19:03:44.454Z,10.15
2023-02-12T19:06:14.528Z,10.01
2023-02-12T19:08:41.415Z,10.05
2023-02-12T19:11:12.924Z,10.04
2023-02-12T19:13:41.291Z,10.01
2023-02-12T19:16:17.958Z,9.96
2023-02-12T19:18:44.673Z,10.07
2023-02-12T19:21:13.550Z,10.02
2023-02-12T19:23:40.529Z,9.97
2023-02-12T19:26:12.746Z,10.03
2023-02-12T19:28:39.593Z,10.01
2023-02-12T19:31:28.730Z,9.91
2023-02-12T19:34:01.450Z,9.99
2023-02-12T19:36:32.706Z,9.97
2023-02-12T19:38:59.781Z,9.95
2023-02-12T19:41:28.449Z,9.95
2023-02-12T19:43:58.317Z,9.90
2023-02-12T19:46:26.547Z,9.86
2023-02-12T19:49:00.008Z,9.88
2023-02-12T19:51:29.852Z,9.91
2023-02-12T19:53:59.989Z,9.83
2023-02-12T19:56:27.149Z,9.94
2023-02-12T19:58:56.669Z,9.93
2023-02-12T20:01:23.696Z,9.88
2023-02-12T20:03:50.975Z,9.91
2023-02-12T20:06:23.960Z,9.92
2023-02-12T20:08:50.964Z,9.85
2023-02-12T20:11:20.483Z,9.82
2023-02-12T20:13:48.282Z,9.79
2023-02-12T20:16:21.232Z,9.85
2023-02-12T20:18:49.959Z,9.85
2023-02-12T20:21:24.699Z,9.84
2023-02-12T20:23:51.640Z,9.68
2023-02-12T20:26:19.843Z,9.80
2023-02-12T20:28:47.842Z,9.75
2023-02-12T20:31:20.404Z,9.84
2023-02-12T20:33:48.007Z,9.86
2023-02-12T20:36:15.184Z,9.73
2023-02-12T20:38:43.476Z,9.79
2023-02-12T20:41:11.139Z,9.83
2023-02-12T20:43:38.738Z,9.82
2023-02-12T20:46:06.190Z,9.69
2023-02-12T20:48:32.950Z,9.66
2023-02-12T20:51:06.962Z,9.74
2023-02-12T20:53:34.945Z,9.66
2023-02-12T20:56:04.929Z,9.76
2023-02-12T20:58:31.668Z,9.70
2023-02-12T21:01:09.901Z,9.62
2023-02-12T21:03:37.103Z,9.64
2023-02-12T21:06:04.278Z,9.69
2023-02-12T21:08:31.389Z,9.72
2023-02-12T21:11:02.997Z,9.73
2023-02-12T21:13:29.745Z,9.76
2023-02-12T21:16:09.048Z,9.76
2023-02-12T21:18:35.898Z,9.73
2023-02-12T21:21:05.652Z,9.77
2023-02-12T21:23:33.901Z,9.77
2023-02-12T21:26:10.581Z,9.72
2023-02-12T21:28:37.661Z,9.70
2023-02-12T21:31:09.381Z,9.72
2023-02-12T21:33:37.487Z,9.60
2023-02-12T21:36:06.753Z,9.65
2023-02-12T21:38:35.232Z,9.51
2023-02-12T21:41:15.411Z,9.57
2023-02-12T21:43:44.454Z,9.59
2023-02-12T21:46:11.459Z,9.64
2023-02-12T21:48:41.725Z,9.61
2023-02-12T21:51:35.907Z,9.61
2023-02-12T21:54:05.655Z,9.66
2023-02-12T21:56:32.666Z,9.66
2023-02-12T21:58:59.731Z,9.62
2023-02-12T22:01:29.509Z,9.51
2023-02-12T22:03:56.093Z,9.56
2023-02-12T22:06:24.877Z,9.66
2023-02-12T22:08:56.093Z,9.59
2023-02-12T22:11:23.852Z,9.62
2023-02-12T22:13:50.444Z,9.54
2023-02-12T22:16:18.613Z,9.54
2023-02-12T22:18:46.243Z,9.52
2023-02-12T22:21:14.808Z,9.53
2023-02-12T22:23:42.868Z,9.52
2023-02-12T22:26:15.708Z,9.54
2023-02-12T22:28:47.900Z,9.56
2023-02-12T22:31:19.542Z,9.60
2023-02-12T22:33:47.911Z,9.63
2023-02-12T22:36:14.991Z,9.55
2023-02-12T22:38:41.879Z,9.45
2023-02-12T22:41:09.277Z,9.50
2023-02-12T22:43:38.458Z,9.40
2023-02-12T22:46:06.060Z,9.48
2023-02-12T22:48:32.711Z,9.44
2023-02-12T22:50:59.550Z,9.46
2023-02-12T22:53:26.457Z,9.39
2023-02-12T22:55:53.130Z,9.35
2023-02-12T22:58:19.751Z,9.40
2023-02-12T23:00:46.418Z,9.35
2023-02-12T23:03:13.038Z,9.50
2023-02-12T23:05:39.640Z,9.40
2023-02-12T23:08:06.767Z,9.50
2023-02-12T23:10:33.794Z,9.45
2023-02-12T23:13:02.427Z,9.33
2023-02-12T23:15:30.114Z,9.42
2023-02-12T23:17:56.749Z,9.37
2023-02-12T23:20:23.625Z,9.39
2023-02-12T23:22:50.419Z,9.32
2023-02-12T23:25:17.147Z,9.31
2023-02-12T23:27:43.776Z,9.29
2023-02-12T23:30:10.930Z,9.25
2023-02-12T23:32:37.477Z,9.31
2023-02-12T23:35:04.371Z,9.26
2023-02-12T23:37:30.975Z,9.26
2023-02-12T23:39:57.591Z,9.30
2023-02-12T23:42:24.191Z,9.15
2023-02-12T23:44:50.771Z,9.06
2023-02-12T23:47:17.377Z,9.06
2023-02-12T23:49:44.168Z,9.20
2023-02-12T23:52:10.731Z,9.20
2023-02-12T23:54:37.424Z,8.94
2023-02-12T23:57:04.124Z,9.03
2023-02-12T23:59:30.876Z,9.06
